Data for 06/08/2018

Time Sea-Level Adjusted Pressure Absolute Pressure Temperature Relative Humidity Dew Point   
(mb) (inHg) (mb) (inHg) (C) (F) (%) (C) (F)
00:05 1019 30.09 848 25.04 12 53.5 75 7.7 45.8
00:10 1019 30.09 848 25.04 11.7 53.1 74 7.3 45.1
00:15 1019 30.09 848 25.04 11.5 52.6 75 7.2 45
00:20 1019 30.09 848 25.04 11.3 52.3 76 7.2 44.9
00:25 1019 30.09 848 25.04 11.1 52 78 7.4 45.3
00:30 1019 30.09 848 25.04 10.9 51.6 77 7.1 44.8
00:35 1019 30.09 848 25.04 10.9 51.6 76 6.9 44.5
00:40 1019 30.09 848 25.04 11.1 51.9 75 6.9 44.4
00:45 1019 30.09 848 25.04 11.1 52.1 76 7 44.6
00:50 1019 30.09 849 25.07 11 51.9 76 6.9 44.5
00:55 1019 30.09 848 25.04 11 51.9 75 6.8 44.3
01:00 1019 30.09 848 25.04 11.2 52.1 74 6.8 44.2
01:05 1019 30.09 848 25.04 11.1 51.9 74 6.5 43.8
01:10 1019 30.09 848 25.04 11.1 52 72 6.3 43.4
01:15 1019 30.09 848 25.04 11.2 52.2 74 6.7 44.1
01:20 1019 30.09 848 25.04 11 51.8 74 6.5 43.7
01:25 1019 30.09 848 25.04 11.2 52.1 73 6.5 43.6
01:30 1019 30.09 848 25.04 11.2 52.2 72 6.4 43.6
01:35 1019 30.09 848 25.04 11.3 52.3 73 6.6 43.8
01:40 1019 30.09 848 25.04 11.2 52.2 73 6.6 43.9
01:45 1019 30.09 848 25.04 11 51.9 74 6.6 43.8
01:50 1019 30.09 848 25.04 10.9 51.7 74 6.6 43.8
01:55 1019 30.09 848 25.04 10.9 51.6 75 6.6 43.9
02:00 1019 30.09 848 25.04 10.9 51.6 75 6.6 44
02:05 1019 30.09 848 25.04 10.7 51.3 75 6.4 43.6
02:10 1019 30.09 848 25.04 10.7 51.3 75 6.5 43.6
02:15 1019 30.09 848 25.04 10.6 51 76 6.5 43.8
02:20 1019 30.09 848 25.04 10.5 50.9 77 6.6 43.9
02:25 1019 30.09 848 25.04 10.5 50.8 77 6.5 43.8
02:30 1019 30.09 848 25.04 10.4 50.8 76 6.5 43.7
02:35 1019 30.09 848 25.04 10.5 51 76 6.6 43.9
02:40 1019 30.09 848 25.04 10.4 50.7 77 6.5 43.7
02:45 1019 30.09 848 25.04 10.3 50.6 77 6.6 43.8
02:50 1019 30.09 848 25.04 10.2 50.4 77 6.3 43.4
02:55 1019 30.09 848 25.04 10.3 50.6 77 6.4 43.6
03:00 1019 30.09 848 25.04 10.4 50.7 76 6.4 43.5
03:05 1019 30.09 848 25.04 10.4 50.8 76 6.4 43.6
03:10 1019 30.09 848 25.04 10.3 50.6 77 6.5 43.7
03:15 1019 30.09 848 25.04 10.2 50.4 77 6.3 43.3
03:20 1019 30.09 849 25.07 10.3 50.6 77 6.4 43.6
03:25 1019 30.09 849 25.07 10.3 50.5 76 6.3 43.3
03:30 1019 30.09 849 25.07 10.5 50.8 75 6.3 43.3
03:35 1019 30.09 849 25.07 10.7 51.2 74 6.2 43.2
03:40 1020 30.12 849 25.07 10.7 51.2 74 6.3 43.4
03:45 1020 30.12 849 25.07 10.9 51.5 72 6.1 43
03:50 1020 30.12 849 25.07 11 51.8 72 6.2 43.2
03:55 1020 30.12 849 25.07 10.9 51.7 73 6.3 43.3
04:00 1020 30.12 849 25.07 10.7 51.2 74 6.3 43.3
04:05 1020 30.12 849 25.07 10.6 51 74 6.2 43.1
04:10 1020 30.12 849 25.07 10.5 51 74 6.2 43.1
04:15 1020 30.12 849 25.07 10.5 51 74 6.2 43.1
04:20 1020 30.12 849 25.07 10.6 51.1 73 6 42.8
04:25 1020 30.12 849 25.07 10.6 51 74 6.2 43.2
04:30 1020 30.12 849 25.07 10.1 50.2 77 6.2 43.2
04:35 1020 30.12 849 25.07 9.9 49.8 76 5.9 42.6
04:40 1020 30.12 849 25.07 10 50 76 6.1 42.9
04:45 1020 30.12 849 25.07 9.8 49.6 77 5.9 42.6
04:50 1020 30.12 849 25.07 9.8 49.6 77 5.9 42.6
04:55 1020 30.12 849 25.07 9.7 49.4 77 5.8 42.5
05:00 1020 30.12 849 25.07 9.7 49.4 77 5.8 42.5
05:05 1020 30.12 849 25.07 9.7 49.5 76 5.8 42.4
05:10 1020 30.12 849 25.07 9.7 49.4 77 5.8 42.4
05:15 1020 30.12 849 25.07 9.4 48.9 78 5.7 42.3
05:20 1020 30.12 849 25.07 9.1 48.4 79 5.7 42.3
05:25 1020 30.12 849 25.07 9 48.2 79 5.6 42
05:30 1020 30.12 849 25.07 9.1 48.4 78 5.5 41.9
05:35 1020 30.12 849 25.07 9.2 48.5 78 5.6 42.1
05:40 1020 30.12 849 25.07 8.9 48.1 79 5.5 42
05:45 1020 30.12 849 25.07 9.1 48.4 79 5.6 42.2
05:50 1020 30.12 849 25.07 9 48.3 79 5.6 42.1
05:55 1020 30.12 849 25.07 9.1 48.3 79 5.6 42
06:00 1020 30.12 849 25.07 9.1 48.4 79 5.6 42.2
06:05 1020 30.12 849 25.07 9.2 48.5 78 5.6 42
06:10 1020 30.12 849 25.07 9.4 48.8 76 5.4 41.8
06:15 1020 30.12 849 25.07 9.7 49.4 75 5.5 41.9
06:20 1020 30.12 849 25.07 10 50.1 73 5.4 41.8
06:25 1020 30.12 849 25.07 10.5 50.9 71 5.5 41.9
06:30 1020 30.12 849 25.07 10.5 51 71 5.6 42
06:35 1020 30.12 850 25.1 10.8 51.5 70 5.5 42
06:40 1020 30.12 850 25.1 10.8 51.4 71 5.8 42.5
06:45 1020 30.12 850 25.1 10.7 51.3 72 5.9 42.6
06:50 1020 30.12 850 25.1 10.8 51.5 72 6 42.7
06:55 1020 30.12 850 25.1 10.9 51.6 72 6 42.8
07:00 1020 30.12 850 25.1 10.8 51.5 72 6 42.7
07:05 1020 30.12 850 25.1 10.9 51.6 71 6 42.7
07:10 1020 30.12 850 25.1 11.2 52.1 71 6.2 43.2
07:15 1020 30.12 850 25.1 11.2 52.1 72 6.3 43.3
07:20 1020 30.12 850 25.1 11.2 52.2 71 6.1 43
07:25 1020 30.12 850 25.1 11.9 53.5 68 6.2 43.2
07:30 1021 30.15 850 25.1 12.4 54.2 67 6.4 43.5
07:35 1021 30.15 850 25.1 12.8 55.1 66 6.7 44
07:40 1021 30.15 850 25.1 13.2 55.8 64 6.7 44.1
07:45 1021 30.15 850 25.1 13.3 56 66 7.1 44.8
07:50 1021 30.15 850 25.1 13.4 56 66 7.2 44.9
07:55 1021 30.15 850 25.1 13.6 56.4 62 6.5 43.6
08:00 1021 30.15 850 25.1 14.3 57.7 60 6.8 44.2
08:05 1021 30.15 850 25.1 14.7 58.5 60 7.2 44.9
08:10 1021 30.15 850 25.1 15.1 59.1 59 7.2 44.9
08:15 1021 30.15 850 25.1 15.3 59.5 58 7.2 45
08:20 1021 30.15 850 25.1 15.5 59.9 56 7 44.5
08:25 1021 30.15 850 25.1 16 60.8 55 6.9 44.5
08:30 1021 30.15 850 25.1 15.9 60.6 55 7.1 44.7
08:35 1021 30.15 850 25.1 15.8 60.5 54 6.7 44.1
08:40 1021 30.15 850 25.1 16 60.7 55 7 44.7
08:45 1021 30.15 850 25.1 16.1 61 52 6.4 43.5
08:50 1021 30.15 850 25.1 16.2 61.1 53 6.8 44.2
08:55 1021 30.15 850 25.1 16.1 61 54 6.9 44.4
09:00 1021 30.15 850 25.1 16.6 61.8 53 6.9 44.5
09:05 1021 30.15 850 25.1 17 62.5 53 7.4 45.4
09:10 1021 30.15 850 25.1 16.8 62.3 54 7.5 45.6
09:15 1021 30.15 850 25.1 16.6 61.9 55 7.6 45.7
09:20 1021 30.15 850 25.1 17.1 62.7 51 7.1 44.8
09:25 1021 30.15 850 25.1 17.3 63.1 50 6.9 44.5
09:30 1021 30.15 850 25.1 17.8 64 51 7.6 45.6
09:35 1021 30.15 850 25.1 18.1 64.6 48 7 44.7
09:40 1021 30.15 850 25.1 18.5 65.3 48 7.5 45.4
09:45 1021 30.15 850 25.1 18.7 65.6 47 7.4 45.3
09:50 1021 30.15 850 25.1 18.8 65.8 47 7.2 45
09:55 1021 30.15 850 25.1 19.4 66.9 42 6.2 43.2
10:00 1021 30.15 850 25.1 18.2 64.7 47 6.7 44.1
10:05 1021 30.15 850 25.1 18.2 64.7 46 6.6 43.9
10:10 1021 30.15 850 25.1 19.2 66.5 42 6.1 43
10:15 1021 30.15 850 25.1 19.2 66.6 45 7.1 44.8
10:20 1021 30.15 850 25.1 19 66.2 46 7.3 45.1
10:25 1021 30.15 850 25.1 19.1 66.3 45 7.1 44.9
10:30 1021 30.15 850 25.1 19.9 67.7 45 7.7 45.9
10:35 1021 30.15 850 25.1 20 68 44 7.4 45.4
10:40 1021 30.15 850 25.1 20.3 68.5 42 7.2 44.9
10:45 1021 30.15 850 25.1 20.1 68.2 43 7.3 45.1
10:50 1021 30.15 850 25.1 20.2 68.4 42 6.9 44.4
10:55 1021 30.15 850 25.1 20.3 68.6 41 6.7 44
11:00 1021 30.15 850 25.1 20.3 68.5 42 7.2 44.9
11:05 1021 30.15 850 25.1 20 68.1 43 7.4 45.3
11:10 1021 30.15 850 25.1 20.3 68.5 43 7.3 45.1
11:15 1021 30.15 850 25.1 20.3 68.5 44 7.7 45.8
11:20 1021 30.15 850 25.1 20.7 69.2 41 7.2 44.9
11:25 1021 30.15 850 25.1 20.5 68.8 43 7.6 45.7
11:30 1021 30.15 850 25.1 20.8 69.5 41 7.2 44.9
11:35 1021 30.15 850 25.1 20.8 69.4 39 6.4 43.5
11:40 1021 30.15 850 25.1 20.2 68.3 42 7.2 44.9
11:45 1021 30.15 850 25.1 20.6 69.1 40 6.6 43.8
11:50 1021 30.15 850 25.1 21.1 69.9 39 6.7 44.1
11:55 1021 30.15 850 25.1 20.9 69.7 39 6.4 43.6
12:00 1021 30.15 850 25.1 21.3 70.3 39 6.8 44.3
12:05 1021 30.15 850 25.1 20.2 68.4 40 6.4 43.5
12:10 1021 30.15 850 25.1 20.2 68.4 40 6.5 43.8
12:15 1021 30.15 850 25.1 21.6 70.9 37 6.5 43.7
12:20 1021 30.15 850 25.1 21 69.9 38 6.5 43.7
12:25 1021 30.15 850 25.1 21.5 70.8 37 6.5 43.7
12:30 1021 30.15 850 25.1 20.9 69.7 38 6.3 43.4
12:35 1021 30.15 850 25.1 21 69.9 37 5.8 42.4
12:40 1021 30.15 850 25.1 21 69.8 37 5.9 42.6
12:45 1021 30.15 850 25.1 20.8 69.4 37 5.9 42.6
12:50 1021 30.15 850 25.1 21.8 71.2 37 6.6 43.8
12:55 1021 30.15 850 25.1 21.3 70.4 35 5.5 42
13:00 1021 30.15 850 25.1 22 71.6 34 5.4 41.8
13:05 1021 30.15 850 25.1 22.8 73 32 5.6 42
13:10 1021 30.15 850 25.1 23.4 74 32 5.7 42.3
13:15 1021 30.15 850 25.1 22.1 71.8 33 5.5 41.9
13:20 1021 30.15 850 25.1 21.6 70.9 35 5.5 41.9
13:25 1021 30.15 850 25.1 21.4 70.6 37 6.3 43.4
13:30 1020 30.12 850 25.1 22.3 72.2 33 5.5 42
13:35 1020 30.12 850 25.1 22.8 73.1 31 5.2 41.4
13:40 1020 30.12 850 25.1 23.4 74.2 31 5.5 41.8
13:45 1020 30.12 849 25.07 23.9 75.1 31 5.8 42.5
13:50 1020 30.12 849 25.07 23.7 74.7 30 5.4 41.8
13:55 1020 30.12 849 25.07 22.6 72.6 34 6 42.7
14:00 1020 30.12 849 25.07 23.2 73.8 32 5.7 42.3
14:05 1020 30.12 849 25.07 23.1 73.6 32 5.6 42
14:10 1020 30.12 849 25.07 23.2 73.7 31 5.4 41.7
14:15 1020 30.12 849 25.07 22.2 71.9 34 5.9 42.7
14:20 1020 30.12 849 25.07 22.3 72.1 34 5.7 42.2
14:25 1020 30.12 849 25.07 23 73.3 33 5.9 42.7
14:30 1020 30.12 849 25.07 23.4 74 31 5.5 41.9
14:35 1020 30.12 849 25.07 23.1 73.6 31 5.5 41.9
14:40 1020 30.12 849 25.07 23 73.5 31 5.1 41.1
14:45 1020 30.12 849 25.07 23.6 74.4 31 5.7 42.2
14:50 1020 30.12 849 25.07 24.1 75.4 29 5.3 41.5
14:55 1020 30.12 849 25.07 23.3 74 31 5.4 41.8
15:00 1020 30.12 849 25.07 23.7 74.7 30 5.3 41.5
15:05 1020 30.12 849 25.07 23.3 73.9 32 6.1 42.9
15:10 1020 30.12 849 25.07 23.5 74.3 32 6 42.9
15:15 1020 30.12 849 25.07 24 75.2 31 5.9 42.6
15:20 1020 30.12 849 25.07 23.3 73.9 32 5.7 42.2
15:25 1020 30.12 849 25.07 23.4 74.1 31 5.4 41.8
15:30 1019 30.09 849 25.07 23.6 74.5 30 5.3 41.5
15:35 1019 30.09 849 25.07 24.5 76 29 5.3 41.6
15:40 1019 30.09 849 25.07 25 77 28 5.7 42.3
15:45 1019 30.09 849 25.07 24.6 76.4 29 5.7 42.3
15:50 1019 30.09 849 25.07 25.4 77.7 27 5.5 41.9
15:55 1019 30.09 849 25.07 25.7 78.2 27 5.7 42.3
16:00 1019 30.09 848 25.04 25 77.1 28 5.7 42.2
16:05 1019 30.09 848 25.04 25.2 77.4 27 5.1 41.1
16:10 1019 30.09 848 25.04 25.1 77.2 28 5.7 42.3
16:15 1019 30.09 848 25.04 25.1 77.2 27 5 40.9
16:20 1019 30.09 848 25.04 25.1 77.2 28 5.5 41.8
16:25 1019 30.09 848 25.04 24.6 76.4 28 5.4 41.7
16:30 1019 30.09 849 25.07 23.3 73.9 30 5 40.9
16:35 1019 30.09 848 25.04 24.1 75.3 29 4.9 40.9
16:40 1019 30.09 848 25.04 24.2 75.5 29 5.2 41.4
16:45 1019 30.09 848 25.04 24.1 75.4 30 5.6 42.1
16:50 1019 30.09 848 25.04 24 75.2 30 5.4 41.7
16:55 1019 30.09 848 25.04 23.9 75 31 5.8 42.5
17:00 1019 30.09 848 25.04 23.8 74.9 31 6 42.8
17:05 1019 30.09 848 25.04 23.8 74.9 30 5.5 41.9
17:10 1019 30.09 848 25.04 23.9 75 30 5.4 41.8
17:15 1019 30.09 848 25.04 24.2 75.6 29 5.5 41.9
17:20 1019 30.09 848 25.04 25 76.9 29 6 42.7
17:25 1019 30.09 848 25.04 24.2 75.6 31 6.5 43.6
17:30 1019 30.09 848 25.04 23.9 75 32 6.5 43.6
17:35 1019 30.09 848 25.04 24.2 75.5 30 5.6 42.2
17:40 1019 30.09 848 25.04 24.7 76.4 28 5.4 41.7
17:45 1019 30.09 848 25.04 24.4 75.8 30 6 42.9
17:50 1019 30.09 848 25.04 23.7 74.6 32 6.1 43
17:55 1019 30.09 848 25.04 23.6 74.4 31 5.9 42.5
18:00 1019 30.09 848 25.04 23.6 74.4 31 5.6 42.1
18:05 1019 30.09 848 25.04 24.1 75.4 29 5.4 41.7
18:10 1018 30.06 848 25.04 24.1 75.3 28 4.7 40.5
18:15 1018 30.06 848 25.04 24.3 75.7 28 5 41.1
18:20 1018 30.06 848 25.04 24.7 76.4 27 4.7 40.5
18:25 1018 30.06 848 25.04 25.1 77.1 28 5.5 42
18:30 1018 30.06 847 25.01 23.8 74.9 29 4.8 40.7
18:35 1018 30.06 848 25.04 23.9 75 28 4.5 40.1
18:40 1018 30.06 847 25.01 24.7 76.5 29 5.9 42.6
18:45 1018 30.06 847 25.01 24.5 76.2 30 6 42.8
18:50 1018 30.06 847 25.01 23.9 75.1 31 6 42.8
18:55 1018 30.06 848 25.04 23.3 73.9 33 6.5 43.7
19:00 1018 30.06 848 25.04 22.8 73.1 37 7.7 45.9
19:05 1018 30.06 848 25.04 22.7 72.8 34 6.1 43.1
19:10 1018 30.06 848 25.04 22.4 72.3 36 6.8 44.2
19:15 1018 30.06 848 25.04 22.5 72.4 36 6.7 44.1
19:20 1019 30.09 848 25.04 22.6 72.7 34 6 42.8
19:25 1019 30.09 848 25.04 22.6 72.6 34 6.2 43.2
19:30 1019 30.09 848 25.04 22.3 72.1 41 8.7 47.7
19:35 1019 30.09 848 25.04 20.6 69.1 45 8.3 47
19:40 1019 30.09 849 25.07 18.6 65.5 44 6.4 43.6
19:45 1020 30.12 849 25.07 18.4 65.2 51 8.2 46.8
19:50 1019 30.09 848 25.04 17.7 63.8 55 8.6 47.5
19:55 1019 30.09 848 25.04 17.2 62.9 49 6.5 43.7
20:00 1019 30.09 848 25.04 17.5 63.5 59 9.4 48.9
20:05 1019 30.09 848 25.04 17.3 63.1 62 10 49.9
20:10 1019 30.09 848 25.04 17.2 63 58 8.9 48.1
20:15 1019 30.09 848 25.04 17.1 62.7 60 9.3 48.8
20:20 1019 30.09 848 25.04 16.9 62.3 57 8.4 47
20:25 1019 30.09 848 25.04 17 62.5 61 9.5 49.1
20:30 1019 30.09 848 25.04 17 62.6 63 9.9 49.9
20:35 1019 30.09 848 25.04 17.1 62.8 60 9.3 48.8
20:40 1019 30.09 848 25.04 16.8 62.2 68 10.8 51.5
20:45 1019 30.09 848 25.04 16.4 61.6 62 9.2 48.5
20:50 1019 30.09 848 25.04 16.9 62.5 59 8.9 48.1
20:55 1019 30.09 848 25.04 17.1 62.7 61 9.6 49.2
21:00 1019 30.09 848 25.04 16.9 62.4 65 10.4 50.7
21:05 1019 30.09 848 25.04 16.1 60.9 68 10.2 50.4
21:10 1019 30.09 848 25.04 15.9 60.7 68 10.2 50.4
21:15 1019 30.09 848 25.04 16 60.8 67 10 49.9
21:20 1019 30.09 848 25.04 16 60.9 68 10.1 50.2
21:25 1019 30.09 848 25.04 15.8 60.4 70 10.4 50.8
21:30 1019 30.09 848 25.04 15.5 59.9 68 9.8 49.7
21:35 1019 30.09 848 25.04 15.5 59.9 64 8.8 47.9
21:40 1019 30.09 848 25.04 15.9 60.6 59 8 46.4
21:45 1019 30.09 848 25.04 15.9 60.6 61 8.5 47.3
21:50 1019 30.09 848 25.04 15.8 60.4 62 8.5 47.3
21:55 1019 30.09 848 25.04 15.7 60.3 62 8.5 47.4
22:00 1019 30.09 848 25.04 15.7 60.3 61 8.4 47.1
22:05 1019 30.09 848 25.04 15.6 60.1 62 8.4 47
22:10 1019 30.09 848 25.04 15.6 60 61 8.3 46.9
22:15 1019 30.09 848 25.04 15.5 59.8 61 8 46.5
22:20 1019 30.09 848 25.04 15.5 59.8 61 8.1 46.6
22:25 1019 30.09 848 25.04 15.4 59.8 62 8.4 47
22:30 1018 30.06 848 25.04 15.2 59.3 63 8.2 46.7
22:35 1018 30.06 848 25.04 15.2 59.3 62 7.9 46.3
22:40 1018 30.06 848 25.04 15.2 59.3 61 7.9 46.1
22:45 1018 30.06 848 25.04 15.1 59.2 62 8 46.4
22:50 1018 30.06 848 25.04 15 59 61 7.6 45.7
22:55 1018 30.06 847 25.01 15.3 59.5 60 7.6 45.7
23:00 1018 30.06 847 25.01 15.3 59.6 59 7.5 45.5
23:05 1018 30.06 847 25.01 15.5 59.9 57 7.1 44.9
23:10 1018 30.06 847 25.01 15.8 60.5 55 6.9 44.5
23:15 1018 30.06 847 25.01 16.1 60.9 55 7 44.7
23:20 1018 30.06 847 25.01 16.1 61 54 7 44.5
23:25 1018 30.06 847 25.01 16.3 61.3 53 6.9 44.4
23:30 1018 30.06 847 25.01 16.4 61.6 53 7 44.6
23:35 1018 30.06 847 25.01 16.5 61.8 52 6.7 44
23:40 1018 30.06 847 25.01 16.7 62 53 7 44.7
23:45 1018 30.06 847 25.01 16.6 62 52 6.9 44.5
23:50 1018 30.06 847 25.01 16.6 61.8 53 7 44.6
23:55 1018 30.06 847 25.01 16.6 61.9 52 6.8 44.3
24:00 1018 30.06 847 25.01 16.7 62.1 52 6.9 44.3